sensor_id;sensor_type;location;lat;lon;timestamp;pressure;altitude;pressure_sealevel;temperature;humidity
22000;BME280;11164;48.818;2.322;2024-02-21T00:01:16;101569.56;;;10.87;44.32
22000;BME280;11164;48.818;2.322;2024-02-21T00:03:42;101570.28;;;10.81;44.55
22000;BME280;11164;48.818;2.322;2024-02-21T00:06:07;101569.94;;;10.84;44.38
22000;BME280;11164;48.818;2.322;2024-02-21T00:08:32;101581.09;;;10.73;44.75
22000;BME280;11164;48.818;2.322;2024-02-21T00:10:57;101580.44;;;10.71;44.55
22000;BME280;11164;48.818;2.322;2024-02-21T00:13:23;101568.28;;;10.75;44.38
22000;BME280;11164;48.818;2.322;2024-02-21T00:15:49;101574.97;;;10.87;44.24
22000;BME280;11164;48.818;2.322;2024-02-21T00:18:14;101562.25;;;10.96;43.98
22000;BME280;11164;48.818;2.322;2024-02-21T00:20:40;101566.00;;;10.95;43.94
22000;BME280;11164;48.818;2.322;2024-02-21T00:23:05;101553.47;;;11.02;43.79
22000;BME280;11164;48.818;2.322;2024-02-21T00:25:30;101560.72;;;11.02;43.86
22000;BME280;11164;48.818;2.322;2024-02-21T00:27:56;101553.34;;;10.96;44.01
22000;BME280;11164;48.818;2.322;2024-02-21T00:30:21;101561.09;;;10.99;43.76
22000;BME280;11164;48.818;2.322;2024-02-21T00:32:46;101558.66;;;11.12;43.56
22000;BME280;11164;48.818;2.322;2024-02-21T00:35:12;101544.06;;;11.21;43.43
22000;BME280;11164;48.818;2.322;2024-02-21T00:37:37;101544.06;;;11.21;43.32
22000;BME280;11164;48.818;2.322;2024-02-21T00:40:03;101546.06;;;11.28;43.21
22000;BME280;11164;48.818;2.322;2024-02-21T00:42:28;101546.47;;;11.16;43.25
22000;BME280;11164;48.818;2.322;2024-02-21T00:44:54;101536.88;;;11.14;43.48
22000;BME280;11164;48.818;2.322;2024-02-21T00:47:19;101533.09;;;11.23;43.21
22000;BME280;11164;48.818;2.322;2024-02-21T00:49:44;101518.75;;;11.22;43.31
22000;BME280;11164;48.818;2.322;2024-02-21T00:52:10;101500.56;;;11.16;43.56
22000;BME280;11164;48.818;2.322;2024-02-21T00:54:35;101512.16;;;11.25;43.21
22000;BME280;11164;48.818;2.322;2024-02-21T00:57:00;101517.69;;;11.09;43.29
22000;BME280;11164;48.818;2.322;2024-02-21T00:59:26;101508.81;;;11.00;43.68
22000;BME280;11164;48.818;2.322;2024-02-21T01:01:51;101506.69;;;10.87;43.72
22000;BME280;11164;48.818;2.322;2024-02-21T01:04:16;101501.81;;;10.82;44.11
22000;BME280;11164;48.818;2.322;2024-02-21T01:06:42;101489.84;;;10.85;43.96
22000;BME280;11164;48.818;2.322;2024-02-21T01:09:09;101486.13;;;10.86;44.33
22000;BME280;11164;48.818;2.322;2024-02-21T01:11:35;101493.78;;;10.97;43.73
22000;BME280;11164;48.818;2.322;2024-02-21T01:14:00;101481.13;;;10.98;43.82
22000;BME280;11164;48.818;2.322;2024-02-21T01:16:26;101470.47;;;11.04;43.73
22000;BME280;11164;48.818;2.322;2024-02-21T01:22:13;101462.19;;;11.06;43.87
22000;BME280;11164;48.818;2.322;2024-02-21T01:24:38;101465.84;;;10.90;44.12
22000;BME280;11164;48.818;2.322;2024-02-21T01:27:03;101466.56;;;10.84;44.21
22000;BME280;11164;48.818;2.322;2024-02-21T01:29:29;101454.84;;;11.00;43.89
22000;BME280;11164;48.818;2.322;2024-02-21T01:31:54;101462.50;;;11.11;43.77
22000;BME280;11164;48.818;2.322;2024-02-21T01:34:20;101475.03;;;11.04;43.91
22000;BME280;11164;48.818;2.322;2024-02-21T01:36:45;101479.69;;;11.10;43.86
22000;BME280;11164;48.818;2.322;2024-02-21T01:39:10;101487.13;;;11.08;44.14
22000;BME280;11164;48.818;2.322;2024-02-21T01:41:35;101468.84;;;10.95;44.35
22000;BME280;11164;48.818;2.322;2024-02-21T01:44:01;101469.94;;;11.09;44.22
22000;BME280;11164;48.818;2.322;2024-02-21T01:46:26;101477.75;;;11.19;43.92
22000;BME280;11164;48.818;2.322;2024-02-21T01:48:56;101475.88;;;11.28;43.88
22000;BME280;11164;48.818;2.322;2024-02-21T01:51:22;101478.44;;;11.21;44.06
22000;BME280;11164;48.818;2.322;2024-02-21T01:53:48;101468.53;;;11.13;44.30
22000;BME280;11164;48.818;2.322;2024-02-21T01:56:16;101464.66;;;11.16;44.12
22000;BME280;11164;48.818;2.322;2024-02-21T01:58:42;101437.09;;;11.20;44.19
22000;BME280;11164;48.818;2.322;2024-02-21T02:01:08;101414.84;;;11.18;44.17
22000;BME280;11164;48.818;2.322;2024-02-21T02:03:33;101403.03;;;11.19;44.15
22000;BME280;11164;48.818;2.322;2024-02-21T02:05:59;101404.13;;;11.10;44.30
22000;BME280;11164;48.818;2.322;2024-02-21T02:08:25;101410.09;;;11.05;44.25
22000;BME280;11164;48.818;2.322;2024-02-21T02:10:51;101412.31;;;11.02;44.32
22000;BME280;11164;48.818;2.322;2024-02-21T02:13:17;101402.53;;;11.01;44.19
22000;BME280;11164;48.818;2.322;2024-02-21T02:15:47;101380.00;;;10.94;44.23
22000;BME280;11164;48.818;2.322;2024-02-21T02:18:14;101389.28;;;10.91;44.51
22000;BME280;11164;48.818;2.322;2024-02-21T02:20:39;101388.72;;;10.81;44.23
22000;BME280;11164;48.818;2.322;2024-02-21T02:23:10;101397.94;;;10.86;44.31
22000;BME280;11164;48.818;2.322;2024-02-21T02:25:37;101377.53;;;10.84;44.15
22000;BME280;11164;48.818;2.322;2024-02-21T02:28:04;101362.78;;;10.72;44.39
22000;BME280;11164;48.818;2.322;2024-02-21T02:30:35;101374.75;;;10.77;44.43
22000;BME280;11164;48.818;2.322;2024-02-21T02:33:02;101387.84;;;10.80;44.21
22000;BME280;11164;48.818;2.322;2024-02-21T02:35:27;101391.41;;;10.81;44.14
22000;BME280;11164;48.818;2.322;2024-02-21T02:37:52;101375.00;;;10.82;44.26
22000;BME280;11164;48.818;2.322;2024-02-21T02:40:18;101367.69;;;10.91;44.16
22000;BME280;11164;48.818;2.322;2024-02-21T02:42:43;101360.09;;;10.95;43.93
22000;BME280;11164;48.818;2.322;2024-02-21T02:45:09;101369.19;;;10.94;44.27
22000;BME280;11164;48.818;2.322;2024-02-21T02:47:34;101339.22;;;10.88;44.33
22000;BME280;11164;48.818;2.322;2024-02-21T02:50:00;101330.41;;;10.95;44.41
22000;BME280;11164;48.818;2.322;2024-02-21T02:52:25;101337.66;;;10.94;44.53
22000;BME280;11164;48.818;2.322;2024-02-21T02:54:51;101340.56;;;11.07;44.19
22000;BME280;11164;48.818;2.322;2024-02-21T02:57:18;101329.59;;;11.09;43.97
22000;BME280;11164;48.818;2.322;2024-02-21T02:59:48;101329.13;;;11.05;44.28
22000;BME280;11164;48.818;2.322;2024-02-21T03:02:13;101331.94;;;11.12;44.30
22000;BME280;11164;48.818;2.322;2024-02-21T03:04:39;101321.69;;;11.07;44.16
22000;BME280;11164;48.818;2.322;2024-02-21T03:07:05;101331.81;;;11.05;44.20
22000;BME280;11164;48.818;2.322;2024-02-21T03:09:30;101314.00;;;10.96;44.60
22000;BME280;11164;48.818;2.322;2024-02-21T03:11:55;101307.44;;;10.99;44.64
22000;BME280;11164;48.818;2.322;2024-02-21T03:14:27;101297.09;;;11.02;44.59
22000;BME280;11164;48.818;2.322;2024-02-21T03:16:52;101281.94;;;11.16;44.11
22000;BME280;11164;48.818;2.322;2024-02-21T03:19:18;101270.13;;;11.17;44.07
22000;BME280;11164;48.818;2.322;2024-02-21T03:21:43;101274.84;;;11.15;44.04
22000;BME280;11164;48.818;2.322;2024-02-21T03:24:08;101273.84;;;11.16;44.01
22000;BME280;11164;48.818;2.322;2024-02-21T03:26:33;101272.16;;;11.30;43.82
22000;BME280;11164;48.818;2.322;2024-02-21T03:28:59;101260.91;;;11.27;43.93
22000;BME280;11164;48.818;2.322;2024-02-21T03:31:24;101250.19;;;11.18;44.06
22000;BME280;11164;48.818;2.322;2024-02-21T03:33:49;101232.44;;;11.09;44.13
22000;BME280;11164;48.818;2.322;2024-02-21T03:36:15;101234.66;;;11.05;44.26
22000;BME280;11164;48.818;2.322;2024-02-21T03:38:40;101237.34;;;10.91;44.46
22000;BME280;11164;48.818;2.322;2024-02-21T03:41:06;101239.78;;;11.00;44.11
22000;BME280;11164;48.818;2.322;2024-02-21T03:43:31;101239.13;;;11.13;43.73
22000;BME280;11164;48.818;2.322;2024-02-21T03:45:56;101242.94;;;11.04;44.20
22000;BME280;11164;48.818;2.322;2024-02-21T03:48:22;101242.19;;;10.95;44.21
22000;BME280;11164;48.818;2.322;2024-02-21T03:50:47;101234.00;;;10.88;44.33
22000;BME280;11164;48.818;2.322;2024-02-21T03:53:12;101253.28;;;11.00;43.97
22000;BME280;11164;48.818;2.322;2024-02-21T03:55:38;101244.63;;;10.90;44.10
22000;BME280;11164;48.818;2.322;2024-02-21T03:58:03;101246.78;;;10.95;44.13
22000;BME280;11164;48.818;2.322;2024-02-21T04:00:28;101253.09;;;11.02;43.87
22000;BME280;11164;48.818;2.322;2024-02-21T04:02:53;101249.06;;;10.98;43.98
22000;BME280;11164;48.818;2.322;2024-02-21T04:05:19;101250.28;;;11.10;43.72
22000;BME280;11164;48.818;2.322;2024-02-21T04:07:44;101239.69;;;11.09;43.90
22000;BME280;11164;48.818;2.322;2024-02-21T04:10:09;101249.81;;;11.06;44.02
22000;BME280;11164;48.818;2.322;2024-02-21T04:12:35;101244.16;;;11.01;44.03
22000;BME280;11164;48.818;2.322;2024-02-21T04:15:00;101251.16;;;11.11;43.83
22000;BME280;11164;48.818;2.322;2024-02-21T04:17:25;101248.53;;;11.02;44.23
22000;BME280;11164;48.818;2.322;2024-02-21T04:20:01;101234.03;;;11.03;44.15
22000;BME280;11164;48.818;2.322;2024-02-21T04:22:27;101222.84;;;11.06;44.12
22000;BME280;11164;48.818;2.322;2024-02-21T04:24:52;101224.44;;;11.01;44.26
22000;BME280;11164;48.818;2.322;2024-02-21T04:27:17;101218.28;;;10.92;44.46
22000;BME280;11164;48.818;2.322;2024-02-21T04:29:43;101210.94;;;10.86;44.92
22000;BME280;11164;48.818;2.322;2024-02-21T04:32:08;101190.28;;;10.93;44.50
22000;BME280;11164;48.818;2.322;2024-02-21T04:34:34;101183.56;;;10.89;44.38
22000;BME280;11164;48.818;2.322;2024-02-21T04:37:00;101201.63;;;10.88;44.25
22000;BME280;11164;48.818;2.322;2024-02-21T04:39:25;101203.22;;;10.83;44.40
22000;BME280;11164;48.818;2.322;2024-02-21T04:41:51;101203.13;;;10.76;44.61
22000;BME280;11164;48.818;2.322;2024-02-21T04:44:16;101202.84;;;10.86;44.70
22000;BME280;11164;48.818;2.322;2024-02-21T04:46:44;101190.84;;;10.88;44.34
22000;BME280;11164;48.818;2.322;2024-02-21T04:49:10;101209.72;;;10.88;44.17
22000;BME280;11164;48.818;2.322;2024-02-21T04:51:35;101210.75;;;10.87;44.15
22000;BME280;11164;48.818;2.322;2024-02-21T04:54:00;101213.16;;;10.67;44.49
22000;BME280;11164;48.818;2.322;2024-02-21T04:56:26;101207.22;;;10.72;44.38
22000;BME280;11164;48.818;2.322;2024-02-21T04:58:51;101211.84;;;10.78;44.39
22000;BME280;11164;48.818;2.322;2024-02-21T05:01:16;101191.38;;;10.84;44.39
22000;BME280;11164;48.818;2.322;2024-02-21T05:03:42;101187.88;;;10.83;44.19
22000;BME280;11164;48.818;2.322;2024-02-21T05:06:07;101179.00;;;10.60;44.75
22000;BME280;11164;48.818;2.322;2024-02-21T05:08:33;101166.50;;;10.44;45.01
22000;BME280;11164;48.818;2.322;2024-02-21T05:10:58;101153.88;;;10.44;44.74
22000;BME280;11164;48.818;2.322;2024-02-21T05:13:23;101158.63;;;10.57;44.59
22000;BME280;11164;48.818;2.322;2024-02-21T05:15:49;101175.41;;;10.67;44.30
22000;BME280;11164;48.818;2.322;2024-02-21T05:18:14;101178.00;;;10.61;44.50
22000;BME280;11164;48.818;2.322;2024-02-21T05:20:39;101159.41;;;10.66;44.28
22000;BME280;11164;48.818;2.322;2024-02-21T05:23:05;101154.94;;;10.73;44.16
22000;BME280;11164;48.818;2.322;2024-02-21T05:25:30;101162.56;;;10.69;44.28
22000;BME280;11164;48.818;2.322;2024-02-21T05:27:55;101144.66;;;10.54;44.47
22000;BME280;11164;48.818;2.322;2024-02-21T05:30:21;101145.63;;;10.61;44.44
22000;BME280;11164;48.818;2.322;2024-02-21T05:32:46;101141.78;;;10.55;44.45
22000;BME280;11164;48.818;2.322;2024-02-21T05:35:12;101144.38;;;10.48;44.55
22000;BME280;11164;48.818;2.322;2024-02-21T05:37:37;101145.56;;;10.46;44.63
22000;BME280;11164;48.818;2.322;2024-02-21T05:40:04;101139.81;;;10.34;44.93
22000;BME280;11164;48.818;2.322;2024-02-21T05:42:29;101120.47;;;10.45;44.49
22000;BME280;11164;48.818;2.322;2024-02-21T05:44:54;101130.81;;;10.57;44.31
22000;BME280;11164;48.818;2.322;2024-02-21T05:47:19;101139.28;;;10.54;44.42
22000;BME280;11164;48.818;2.322;2024-02-21T05:49:45;101124.94;;;10.38;44.83
22000;BME280;11164;48.818;2.322;2024-02-21T05:52:11;101109.41;;;10.40;44.61
22000;BME280;11164;48.818;2.322;2024-02-21T05:54:39;101133.78;;;10.47;44.59
22000;BME280;11164;48.818;2.322;2024-02-21T05:57:05;101124.00;;;10.46;44.45
22000;BME280;11164;48.818;2.322;2024-02-21T05:59:30;101120.59;;;10.52;44.57
22000;BME280;11164;48.818;2.322;2024-02-21T06:01:59;101131.78;;;10.64;44.11
22000;BME280;11164;48.818;2.322;2024-02-21T06:04:24;101119.97;;;10.65;43.86
22000;BME280;11164;48.818;2.322;2024-02-21T06:06:49;101125.56;;;10.63;44.36
22000;BME280;11164;48.818;2.322;2024-02-21T06:09:14;101104.34;;;10.60;44.28
22000;BME280;11164;48.818;2.322;2024-02-21T06:11:40;101113.56;;;10.66;44.19
22000;BME280;11164;48.818;2.322;2024-02-21T06:14:05;101110.22;;;10.64;44.37
22000;BME280;11164;48.818;2.322;2024-02-21T06:16:31;101085.94;;;10.64;44.32
22000;BME280;11164;48.818;2.322;2024-02-21T06:18:56;101083.53;;;10.69;44.22
22000;BME280;11164;48.818;2.322;2024-02-21T06:21:21;101090.19;;;10.73;44.22
22000;BME280;11164;48.818;2.322;2024-02-21T06:23:46;101069.13;;;10.62;44.50
22000;BME280;11164;48.818;2.322;2024-02-21T06:26:12;101052.81;;;10.55;44.60
22000;BME280;11164;48.818;2.322;2024-02-21T06:28:37;101053.63;;;10.56;44.58
22000;BME280;11164;48.818;2.322;2024-02-21T06:31:02;101035.53;;;10.64;44.52
22000;BME280;11164;48.818;2.322;2024-02-21T06:33:28;101036.94;;;10.60;44.57
22000;BME280;11164;48.818;2.322;2024-02-21T06:35:53;101068.91;;;10.48;44.33
22000;BME280;11164;48.818;2.322;2024-02-21T06:38:19;101072.50;;;10.41;44.74
22000;BME280;11164;48.818;2.322;2024-02-21T06:40:45;101061.66;;;10.34;45.06
22000;BME280;11164;48.818;2.322;2024-02-21T06:43:14;101066.28;;;10.40;44.77
22000;BME280;11164;48.818;2.322;2024-02-21T06:45:40;101069.19;;;10.54;44.58
22000;BME280;11164;48.818;2.322;2024-02-21T06:48:05;101050.31;;;10.54;44.51
22000;BME280;11164;48.818;2.322;2024-02-21T06:50:30;101049.66;;;10.66;44.31
22000;BME280;11164;48.818;2.322;2024-02-21T06:52:56;101043.97;;;10.76;44.28
22000;BME280;11164;48.818;2.322;2024-02-21T06:55:21;101044.88;;;10.83;43.98
22000;BME280;11164;48.818;2.322;2024-02-21T06:57:46;101046.25;;;10.94;44.04
22000;BME280;11164;48.818;2.322;2024-02-21T07:00:13;101052.97;;;10.83;44.38
22000;BME280;11164;48.818;2.322;2024-02-21T07:02:39;101027.25;;;10.81;44.54
22000;BME280;11164;48.818;2.322;2024-02-21T07:05:04;101034.00;;;10.92;44.20
22000;BME280;11164;48.818;2.322;2024-02-21T07:07:30;101023.19;;;10.92;44.14
22000;BME280;11164;48.818;2.322;2024-02-21T07:09:55;101030.50;;;10.98;44.48
22000;BME280;11164;48.818;2.322;2024-02-21T07:12:20;101025.72;;;10.93;44.55
22000;BME280;11164;48.818;2.322;2024-02-21T07:14:46;101015.19;;;10.98;44.38
22000;BME280;11164;48.818;2.322;2024-02-21T07:17:11;101026.28;;;10.88;44.69
22000;BME280;11164;48.818;2.322;2024-02-21T07:19:36;101027.91;;;11.04;44.40
22000;BME280;11164;48.818;2.322;2024-02-21T07:22:02;101017.63;;;11.15;43.96
22000;BME280;11164;48.818;2.322;2024-02-21T07:24:28;101016.88;;;11.21;44.04
22000;BME280;11164;48.818;2.322;2024-02-21T07:26:53;101023.84;;;11.15;44.21
22000;BME280;11164;48.818;2.322;2024-02-21T07:29:18;101022.53;;;11.26;44.06
22000;BME280;11164;48.818;2.322;2024-02-21T07:31:44;101033.47;;;11.03;44.71
22000;BME280;11164;48.818;2.322;2024-02-21T07:34:10;101020.44;;;10.85;44.80
22000;BME280;11164;48.818;2.322;2024-02-21T07:36:36;101033.66;;;10.80;45.01
22000;BME280;11164;48.818;2.322;2024-02-21T07:39:03;101040.91;;;10.79;45.28
22000;BME280;11164;48.818;2.322;2024-02-21T07:41:29;101048.16;;;10.79;45.27
22000;BME280;11164;48.818;2.322;2024-02-21T07:43:55;101034.94;;;10.84;45.23
22000;BME280;11164;48.818;2.322;2024-02-21T07:46:21;101041.31;;;10.98;44.92
22000;BME280;11164;48.818;2.322;2024-02-21T07:48:46;101045.31;;;11.02;45.07
22000;BME280;11164;48.818;2.322;2024-02-21T07:51:12;101040.03;;;11.15;44.85
22000;BME280;11164;48.818;2.322;2024-02-21T07:53:39;101034.00;;;11.13;44.88
22000;BME280;11164;48.818;2.322;2024-02-21T07:56:09;101038.06;;;11.46;44.60
22000;BME280;11164;48.818;2.322;2024-02-21T07:58:35;101026.72;;;11.57;44.17
22000;BME280;11164;48.818;2.322;2024-02-21T08:01:01;101007.13;;;11.70;43.91
22000;BME280;11164;48.818;2.322;2024-02-21T08:03:26;101010.28;;;11.52;44.39
22000;BME280;11164;48.818;2.322;2024-02-21T08:05:51;101009.63;;;11.50;44.48
22000;BME280;11164;48.818;2.322;2024-02-21T08:08:17;100993.06;;;11.53;44.36
22000;BME280;11164;48.818;2.322;2024-02-21T08:10:45;100986.38;;;11.49;44.57
22000;BME280;11164;48.818;2.322;2024-02-21T08:13:10;100988.78;;;11.65;44.29
22000;BME280;11164;48.818;2.322;2024-02-21T08:15:35;100980.38;;;11.75;44.05
22000;BME280;11164;48.818;2.322;2024-02-21T08:18:04;100975.34;;;11.72;44.31
22000;BME280;11164;48.818;2.322;2024-02-21T08:20:29;100971.81;;;11.71;44.26
22000;BME280;11164;48.818;2.322;2024-02-21T08:22:54;100975.41;;;11.57;44.59
22000;BME280;11164;48.818;2.322;2024-02-21T08:25:20;100963.16;;;11.54;44.68
22000;BME280;11164;48.818;2.322;2024-02-21T08:27:45;100965.06;;;11.60;44.55
22000;BME280;11164;48.818;2.322;2024-02-21T08:30:11;100961.19;;;11.70;44.33
22000;BME280;11164;48.818;2.322;2024-02-21T08:32:36;100968.13;;;11.79;44.23
22000;BME280;11164;48.818;2.322;2024-02-21T08:35:02;100955.34;;;11.66;44.70
22000;BME280;11164;48.818;2.322;2024-02-21T08:37:28;100945.19;;;11.68;44.50
22000;BME280;11164;48.818;2.322;2024-02-21T08:39:53;100937.91;;;11.69;44.54
22000;BME280;11164;48.818;2.322;2024-02-21T08:42:19;100933.25;;;11.84;44.16
22000;BME280;11164;48.818;2.322;2024-02-21T08:44:44;100937.53;;;12.07;43.95
22000;BME280;11164;48.818;2.322;2024-02-21T08:47:10;100937.16;;;12.10;43.99
22000;BME280;11164;48.818;2.322;2024-02-21T08:49:36;100938.16;;;12.09;44.13
22000;BME280;11164;48.818;2.322;2024-02-21T08:52:02;100924.28;;;12.18;44.03
22000;BME280;11164;48.818;2.322;2024-02-21T08:54:28;100917.66;;;12.28;43.77
22000;BME280;11164;48.818;2.322;2024-02-21T08:56:54;100928.94;;;12.38;43.49
22000;BME280;11164;48.818;2.322;2024-02-21T08:59:19;100934.59;;;12.50;43.49
22000;BME280;11164;48.818;2.322;2024-02-21T09:01:46;100923.06;;;12.28;43.87
22000;BME280;11164;48.818;2.322;2024-02-21T09:04:12;100928.47;;;12.28;44.21
22000;BME280;11164;48.818;2.322;2024-02-21T09:06:37;100900.59;;;12.21;44.44
22000;BME280;11164;48.818;2.322;2024-02-21T09:09:07;100907.75;;;12.48;44.16
22000;BME280;11164;48.818;2.322;2024-02-21T09:11:34;100905.94;;;12.75;43.65
22000;BME280;11164;48.818;2.322;2024-02-21T09:13:59;100902.03;;;12.85;43.63
22000;BME280;11164;48.818;2.322;2024-02-21T09:16:24;100901.84;;;13.06;43.13
22000;BME280;11164;48.818;2.322;2024-02-21T09:18:50;100896.44;;;13.13;43.25
22000;BME280;11164;48.818;2.322;2024-02-21T09:21:15;100888.31;;;13.00;43.72
22000;BME280;11164;48.818;2.322;2024-02-21T09:23:40;100880.19;;;13.20;43.32
22000;BME280;11164;48.818;2.322;2024-02-21T09:26:06;100881.41;;;13.44;43.01
22000;BME280;11164;48.818;2.322;2024-02-21T09:28:31;100865.81;;;13.12;43.61
22000;BME280;11164;48.818;2.322;2024-02-21T09:30:58;100862.69;;;13.02;43.75
22000;BME280;11164;48.818;2.322;2024-02-21T09:33:23;100859.34;;;12.87;44.00
22000;BME280;11164;48.818;2.322;2024-02-21T09:35:48;100855.00;;;12.86;44.22
22000;BME280;11164;48.818;2.322;2024-02-21T09:38:14;100856.81;;;12.79;44.57
22000;BME280;11164;48.818;2.322;2024-02-21T09:40:40;100848.31;;;12.88;44.14
22000;BME280;11164;48.818;2.322;2024-02-21T09:43:07;100850.56;;;12.78;44.26
22000;BME280;11164;48.818;2.322;2024-02-21T09:45:33;100840.56;;;12.79;44.51
22000;BME280;11164;48.818;2.322;2024-02-21T09:50:56;100810.22;;;13.10;43.84
22000;BME280;11164;48.818;2.322;2024-02-21T09:53:24;100840.59;;;13.32;43.73
22000;BME280;11164;48.818;2.322;2024-02-21T09:55:50;100829.75;;;13.32;43.56
22000;BME280;11164;48.818;2.322;2024-02-21T09:58:16;100830.41;;;13.14;43.80
22000;BME280;11164;48.818;2.322;2024-02-21T10:00:41;100827.09;;;13.12;44.13
22000;BME280;11164;48.818;2.322;2024-02-21T10:03:07;100821.63;;;13.39;43.50
22000;BME280;11164;48.818;2.322;2024-02-21T10:05:34;100817.88;;;13.40;43.69
22000;BME280;11164;48.818;2.322;2024-02-21T10:08:01;100793.75;;;13.25;43.84
22000;BME280;11164;48.818;2.322;2024-02-21T10:10:26;100799.34;;;13.37;43.82
22000;BME280;11164;48.818;2.322;2024-02-21T10:12:53;100803.34;;;13.27;44.05
22000;BME280;11164;48.818;2.322;2024-02-21T10:15:25;100803.34;;;13.27;44.03
22000;BME280;11164;48.818;2.322;2024-02-21T10:18:01;100788.50;;;13.43;43.71
22000;BME280;11164;48.818;2.322;2024-02-21T10:20:28;100793.94;;;13.37;43.71
22000;BME280;11164;48.818;2.322;2024-02-21T10:23:03;100782.88;;;13.45;42.90
22000;BME280;11164;48.818;2.322;2024-02-21T10:25:36;100774.97;;;13.37;44.00
22000;BME280;11164;48.818;2.322;2024-02-21T10:28:06;100773.66;;;13.53;43.72
22000;BME280;11164;48.818;2.322;2024-02-21T10:30:32;100760.91;;;13.60;43.83
22000;BME280;11164;48.818;2.322;2024-02-21T10:32:57;100751.06;;;13.72;43.60
22000;BME280;11164;48.818;2.322;2024-02-21T10:35:27;100753.97;;;13.77;43.62
22000;BME280;11164;48.818;2.322;2024-02-21T10:37:55;100742.25;;;14.22;43.03
22000;BME280;11164;48.818;2.322;2024-02-21T10:40:28;100745.41;;;14.19;43.08
22000;BME280;11164;48.818;2.322;2024-02-21T10:42:58;100743.59;;;14.13;43.37
22000;BME280;11164;48.818;2.322;2024-02-21T10:47:55;100724.66;;;14.06;43.29
22000;BME280;11164;48.818;2.322;2024-02-21T10:50:24;100713.28;;;13.84;43.92
22000;BME280;11164;48.818;2.322;2024-02-21T10:53:05;100721.03;;;14.12;42.50
22000;BME280;11164;48.818;2.322;2024-02-21T10:55:38;100702.47;;;14.16;39.75
22000;BME280;11164;48.818;2.322;2024-02-21T10:58:04;100691.59;;;13.84;43.76
22000;BME280;11164;48.818;2.322;2024-02-21T11:00:30;100707.78;;;14.29;43.02
22000;BME280;11164;48.818;2.322;2024-02-21T11:02:59;100692.97;;;14.32;42.79
22000;BME280;11164;48.818;2.322;2024-02-21T11:05:25;100694.44;;;14.28;43.14
22000;BME280;11164;48.818;2.322;2024-02-21T11:07:53;100688.47;;;14.19;43.01
22000;BME280;11164;48.818;2.322;2024-02-21T11:10:25;100700.28;;;13.99;42.28
22000;BME280;11164;48.818;2.322;2024-02-21T11:13:07;100695.78;;;13.86;42.20
22000;BME280;11164;48.818;2.322;2024-02-21T11:15:33;100679.63;;;13.98;43.39
22000;BME280;11164;48.818;2.322;2024-02-21T11:17:58;100657.72;;;14.00;43.51
22000;BME280;11164;48.818;2.322;2024-02-21T11:20:36;100648.34;;;14.02;42.28
22000;BME280;11164;48.818;2.322;2024-02-21T11:23:02;100637.25;;;14.11;42.86
22000;BME280;11164;48.818;2.322;2024-02-21T11:25:28;100640.09;;;13.91;43.36
22000;BME280;11164;48.818;2.322;2024-02-21T11:28:00;100642.09;;;13.63;43.47
22000;BME280;11164;48.818;2.322;2024-02-21T11:30:32;100633.25;;;13.88;42.59
22000;BME280;11164;48.818;2.322;2024-02-21T11:33:06;100627.84;;;13.81;42.30
22000;BME280;11164;48.818;2.322;2024-02-21T11:35:35;100614.53;;;14.05;42.85
22000;BME280;11164;48.818;2.322;2024-02-21T11:38:13;100614.06;;;13.83;41.34
22000;BME280;11164;48.818;2.322;2024-02-21T11:40:46;100611.44;;;13.69;43.03
22000;BME280;11164;48.818;2.322;2024-02-21T11:43:11;100614.81;;;13.97;43.15
22000;BME280;11164;48.818;2.322;2024-02-21T11:45:37;100597.66;;;14.28;42.53
22000;BME280;11164;48.818;2.322;2024-02-21T11:48:05;100579.94;;;14.25;42.71
22000;BME280;11164;48.818;2.322;2024-02-21T11:50:31;100583.41;;;14.33;42.59
22000;BME280;11164;48.818;2.322;2024-02-21T11:52:57;100590.19;;;14.23;42.68
22000;BME280;11164;48.818;2.322;2024-02-21T11:55:22;100572.34;;;14.34;42.60
22000;BME280;11164;48.818;2.322;2024-02-21T11:57:48;100574.16;;;14.59;42.38
22000;BME280;11164;48.818;2.322;2024-02-21T12:00:15;100566.47;;;14.74;42.16
22000;BME280;11164;48.818;2.322;2024-02-21T12:02:41;100575.56;;;14.80;42.17
22000;BME280;11164;48.818;2.322;2024-02-21T12:05:07;100559.38;;;14.92;42.13
22000;BME280;11164;48.818;2.322;2024-02-21T12:07:32;100556.50;;;15.05;41.99
22000;BME280;11164;48.818;2.322;2024-02-21T12:10:01;100549.50;;;14.79;42.15
22000;BME280;11164;48.818;2.322;2024-02-21T12:12:26;100539.81;;;14.53;42.62
22000;BME280;11164;48.818;2.322;2024-02-21T12:14:55;100537.38;;;14.44;42.87
22000;BME280;11164;48.818;2.322;2024-02-21T12:17:21;100528.13;;;14.52;42.46
22000;BME280;11164;48.818;2.322;2024-02-21T12:19:46;100525.28;;;14.47;42.39
22000;BME280;11164;48.818;2.322;2024-02-21T12:22:17;100517.34;;;14.46;42.00
22000;BME280;11164;48.818;2.322;2024-02-21T12:24:43;100518.03;;;14.41;42.45
22000;BME280;11164;48.818;2.322;2024-02-21T12:27:12;100514.47;;;14.22;42.57
22000;BME280;11164;48.818;2.322;2024-02-21T12:29:37;100503.34;;;14.30;42.51
22000;BME280;11164;48.818;2.322;2024-02-21T12:32:03;100500.44;;;14.43;42.24
22000;BME280;11164;48.818;2.322;2024-02-21T12:34:29;100479.69;;;14.68;41.73
22000;BME280;11164;48.818;2.322;2024-02-21T12:36:58;100487.94;;;14.61;41.65
22000;BME280;11164;48.818;2.322;2024-02-21T12:39:23;100475.13;;;14.50;42.05
22000;BME280;11164;48.818;2.322;2024-02-21T12:41:48;100477.25;;;14.29;42.30
22000;BME280;11164;48.818;2.322;2024-02-21T12:44:14;100463.63;;;14.17;42.42
22000;BME280;11164;48.818;2.322;2024-02-21T12:46:39;100458.03;;;14.49;41.90
22000;BME280;11164;48.818;2.322;2024-02-21T12:49:07;100446.81;;;14.76;41.51
22000;BME280;11164;48.818;2.322;2024-02-21T12:51:36;100447.25;;;14.61;41.70
22000;BME280;11164;48.818;2.322;2024-02-21T12:54:01;100437.88;;;14.75;41.45